Denver, CO

12:24 PM MDT on May 03, 2015 (GMT -0600)
Geography and Env. Sciences, CU Denver | | Change Station
CLOSE
Current Station
Personal Weather Station
Location: Denver, CO
Elevation: 5225 ft
Nearby Weather Stations

Elev 5225 ft 39.75 °N, 105.00 °W | Updated 3 minutes ago

Partly Cloudy
Partly Cloudy
74.7 °F
Feels Like 76 °F
N
2.0
Wind Variable Wind from SSE
Gusts 2.0 mph

Today
High -- | Low -- °F
--% Chance of Precip.
Yesterday
High -- | Low -- °F
Precip. -- in
5:58 AM 7:56 PM
Full, 100% visible
Pressure 29.85 in
Visibility 10.0 miles
Clouds Scattered Clouds 10000 ft
Scattered Clouds 15000 ft
Mostly Cloudy 20000 ft
Heat Index 76 °F
Dew Point 32 °F
Humidity 21%
Rainfall 0.00 in
Snow Depth Not available.
UV 3.7 out of 12
Pollen 9.90 out of 12
Air Quality Not available.
Flu Activity Sporadic
METAR KAPA 031753Z COR 08005KT 10SM SCT100 SCT150 BKN200 23/M01 A3000 RMK AO2 SLP106 VIRGA DSNT SW-W TCU DSNT SW-W T02331011 10233 20122 50002

More Conditions Fewer Conditions

Pressure 29.85 in
Visibility 10.0 miles
Clouds Scattered Clouds 10000 ft
Scattered Clouds 15000 ft
Mostly Cloudy 20000 ft
Heat Index 76 °F
Dew Point 32 °F
Humidity 21%
Rainfall 0.00 in
Snow Depth Not available.
UV 3.7 out of 12
Pollen 9.90 out of 12
Air Quality Not available.
Flu Activity Sporadic
METAR KAPA 031753Z COR 08005KT 10SM SCT100 SCT150 BKN200 23/M01 A3000 RMK AO2 SLP106 VIRGA DSNT SW-W TCU DSNT SW-W T02331011 10233 20122 50002

More Conditions Fewer Conditions

Nepal has a long way to go to dig out and rebuild from a devastating earthquake. We have teamed up with several charities and organizations to make contributing to the relief effort as easy as possible.
How you can help: Portlight Strategies | Red Cross

10-Day Weather Forecast

Almanac

Astronomy

May. 03, 2015 Rise Set
Actual Time
Civil Twilight
Nautical Twilight
Astronomical Twilight
Moon
Length of Visible Light
Length of Day
Tomorrow will be .
, % of the Moon is Illuminated

Today's Extremes

State Highs State Lows

Community

WunderPhotos

Upload Photos

1,818,305 photos uploaded!

WunderBlogs® & News

Nearby

Air Quality

  Air Quality AQ Index Pollutant
Not available.

Snow Depth

Station Depth Elevation

Earthquake Activity

City Distance Mag. Time & Date
Minimum magnitude displayed is 2.5.

Coastal Water Temperatures

Place Temperature

Stations

Nearby Weather Stations

Station Location Temp. Windchill Dew Point Humidity Wind Precip. Elev Updated Type